createdAt,value
2023-05-08T00:01:09.893Z,5.63
2023-05-08T00:03:36.499Z,5.80
2023-05-08T00:06:06.411Z,5.20
2023-05-08T00:08:33.144Z,5.70
2023-05-08T00:10:59.545Z,6.47
2023-05-08T00:13:26.130Z,5.88
2023-05-08T00:15:52.642Z,5.75
2023-05-08T00:18:19.043Z,5.00
2023-05-08T00:20:45.462Z,5.45
2023-05-08T00:23:11.902Z,5.50
2023-05-08T00:25:38.413Z,5.85
2023-05-08T00:28:04.846Z,5.55
2023-05-08T00:30:31.399Z,6.03
2023-05-08T00:32:57.932Z,5.82
2023-05-08T00:35:24.386Z,6.55
2023-05-08T00:37:50.811Z,5.72
2023-05-08T00:40:17.210Z,5.93
2023-05-08T00:42:43.629Z,5.78
2023-05-08T00:45:10.396Z,5.80
2023-05-08T00:47:37.758Z,6.07
2023-05-08T00:50:05.398Z,6.28
2023-05-08T00:52:33.068Z,6.68
2023-05-08T00:55:01.378Z,6.20
2023-05-08T00:57:32.148Z,5.80
2023-05-08T01:00:00.647Z,5.43
2023-05-08T01:02:27.855Z,6.10
2023-05-08T01:04:55.600Z,5.75
2023-05-08T01:07:22.296Z,6.55
2023-05-08T01:09:49.087Z,6.32
2023-05-08T01:12:27.593Z,6.40
2023-05-08T01:15:09.646Z,5.82
2023-05-08T01:17:45.849Z,6.38
2023-05-08T01:20:29.987Z,7.13
2023-05-08T01:23:42.774Z,6.57
2023-05-08T01:26:36.038Z,6.47
2023-05-08T01:29:18.997Z,6.43
2023-05-08T01:32:11.563Z,6.30
2023-05-08T01:34:49.235Z,6.05
2023-05-08T01:37:17.304Z,7.82
2023-05-08T01:39:51.399Z,7.15
2023-05-08T01:42:26.925Z,7.25
2023-05-08T01:45:03.131Z,6.90
2023-05-08T01:47:33.021Z,6.75
2023-05-08T01:50:08.870Z,6.65
2023-05-08T01:52:39.657Z,7.03
2023-05-08T01:55:11.190Z,6.65
2023-05-08T01:57:42.419Z,6.72
2023-05-08T02:00:09.921Z,6.90
2023-05-08T02:02:39.907Z,7.57
2023-05-08T02:05:08.413Z,6.95
2023-05-08T02:07:38.171Z,7.13
2023-05-08T02:10:06.379Z,7.45
2023-05-08T02:12:34.330Z,8.10
2023-05-08T02:15:03.131Z,7.60
2023-05-08T02:17:31.933Z,7.68
2023-05-08T02:20:00.865Z,7.38
2023-05-08T02:22:28.630Z,7.35
2023-05-08T02:24:56.346Z,7.72
2023-05-08T02:27:25.783Z,7.13
2023-05-08T02:29:54.493Z,7.65
2023-05-08T02:32:25.160Z,8.48
2023-05-08T02:35:02.519Z,8.40
2023-05-08T02:37:31.845Z,8.02
2023-05-08T02:39:58.836Z,7.68
2023-05-08T02:42:25.582Z,8.10
2023-05-08T02:44:52.013Z,7.53
2023-05-08T02:47:23.805Z,7.75
2023-05-08T02:50:00.197Z,7.70
2023-05-08T02:52:38.140Z,7.30
2023-05-08T02:55:27.212Z,7.95
2023-05-08T02:58:04.708Z,8.07
2023-05-08T03:00:45.023Z,7.90
2023-05-08T03:03:34.128Z,8.13
2023-05-08T03:06:03.402Z,8.00
2023-05-08T03:08:32.540Z,7.95
2023-05-08T03:11:02.720Z,7.35
2023-05-08T03:13:34.426Z,8.03
2023-05-08T03:16:03.496Z,8.50
2023-05-08T03:18:43.214Z,8.30
2023-05-08T03:21:13.162Z,7.47
2023-05-08T03:23:40.690Z,9.50
2023-05-08T03:26:08.533Z,7.78
2023-05-08T03:28:37.740Z,7.80
2023-05-08T03:31:05.365Z,8.07
2023-05-08T03:33:33.046Z,7.45
2023-05-08T03:35:59.769Z,8.75
2023-05-08T03:38:26.714Z,7.97
2023-05-08T03:40:53.272Z,8.05
2023-05-08T03:43:20.523Z,8.27
2023-05-08T03:45:47.670Z,8.35
2023-05-08T03:48:15.347Z,8.98
2023-05-08T03:50:43.626Z,9.07
2023-05-08T03:53:10.275Z,9.18
2023-05-08T03:55:37.436Z,9.23
2023-05-08T03:58:24.396Z,9.15
2023-05-08T04:01:01.683Z,8.68
2023-05-08T04:04:04.609Z,9.00
2023-05-08T04:06:54.136Z,9.20
2023-05-08T04:09:35.818Z,8.57
2023-05-08T04:12:09.576Z,8.50
2023-05-08T04:14:43.860Z,8.07
2023-05-08T04:17:14.309Z,8.77
2023-05-08T04:19:46.711Z,6.30
2023-05-08T04:22:15.934Z,8.48
2023-05-08T04:24:45.415Z,8.68
2023-05-08T04:27:12.822Z,8.48
2023-05-08T04:29:40.595Z,8.23
2023-05-08T04:32:09.075Z,7.80
2023-05-08T04:34:36.224Z,7.32
2023-05-08T04:37:03.609Z,7.25
2023-05-08T04:39:30.297Z,8.10
2023-05-08T04:42:02.583Z,7.75
2023-05-08T04:44:30.250Z,7.13
2023-05-08T04:46:56.765Z,7.13
2023-05-08T04:49:23.201Z,7.15
2023-05-08T04:51:49.622Z,7.70
2023-05-08T04:54:16.174Z,7.07
2023-05-08T04:56:43.411Z,6.88
2023-05-08T04:59:10.017Z,6.20
2023-05-08T05:01:36.522Z,6.50
2023-05-08T05:04:02.965Z,6.45
2023-05-08T05:06:29.469Z,6.45
2023-05-08T05:08:56.372Z,5.90
2023-05-08T05:11:23.040Z,6.10
2023-05-08T05:13:49.534Z,5.97
2023-05-08T05:16:16.137Z,5.97
2023-05-08T05:18:42.668Z,5.80
2023-05-08T05:21:09.552Z,5.40
2023-05-08T05:23:36.089Z,5.78
2023-05-08T05:26:02.780Z,5.18
2023-05-08T05:28:30.290Z,5.35
2023-05-08T05:30:57.131Z,5.60
2023-05-08T05:33:24.287Z,5.63
2023-05-08T05:35:50.914Z,4.78
2023-05-08T05:38:17.345Z,4.68
2023-05-08T05:40:43.832Z,5.22
2023-05-08T05:43:10.305Z,5.75
2023-05-08T05:45:36.938Z,5.00
2023-05-08T05:48:03.970Z,5.40
2023-05-08T05:50:31.461Z,5.13
2023-05-08T05:52:58.941Z,4.40
2023-05-08T05:55:26.726Z,4.95
2023-05-08T05:57:53.227Z,4.75
2023-05-08T06:00:21.169Z,4.45
2023-05-08T06:02:51.767Z,5.13
2023-05-08T06:05:19.640Z,5.03
2023-05-08T06:07:46.391Z,4.57
2023-05-08T06:10:13.300Z,4.53
2023-05-08T06:12:40.161Z,4.47
2023-05-08T06:15:07.934Z,4.05
2023-05-08T06:17:34.426Z,3.83
2023-05-08T06:20:01.152Z,3.92
2023-05-08T06:22:29.314Z,3.70
2023-05-08T06:24:57.207Z,3.88
2023-05-08T06:27:23.711Z,3.90
2023-05-08T06:29:53.384Z,3.03
2023-05-08T06:32:20.679Z,3.75
2023-05-08T06:34:47.208Z,3.20
2023-05-08T06:37:13.639Z,3.22
2023-05-08T06:39:40.479Z,3.10
2023-05-08T06:42:08.161Z,3.30
2023-05-08T06:47:04.301Z,3.75
2023-05-08T06:49:30.809Z,3.28
2023-05-08T06:51:58.102Z,3.30
2023-05-08T06:54:24.890Z,3.00
2023-05-08T06:56:52.815Z,3.05
2023-05-08T06:59:19.235Z,2.92
2023-05-08T07:01:45.740Z,3.03
2023-05-08T07:04:12.487Z,3.10
2023-05-08T07:06:39.004Z,2.88
2023-05-08T07:09:05.398Z,3.25
2023-05-08T07:11:31.817Z,3.10
2023-05-08T07:13:58.249Z,2.97
2023-05-08T07:16:24.744Z,3.20
2023-05-08T07:18:51.192Z,2.95
2023-05-08T07:21:20.162Z,3.10
2023-05-08T07:23:47.877Z,2.97
2023-05-08T07:26:14.537Z,2.70
2023-05-08T07:28:40.956Z,2.53
2023-05-08T07:31:07.448Z,2.92
2023-05-08T07:33:34.629Z,2.70
2023-05-08T07:36:01.373Z,2.10
2023-05-08T07:38:27.785Z,2.97
2023-05-08T07:40:57.251Z,2.40
2023-05-08T07:43:24.245Z,2.60
2023-05-08T07:45:50.689Z,2.70
2023-05-08T07:48:17.154Z,2.40
2023-05-08T07:50:44.616Z,2.33
2023-05-08T07:53:11.116Z,2.22
2023-05-08T07:55:37.528Z,2.53
2023-05-08T07:58:03.930Z,2.63
2023-05-08T08:00:30.358Z,2.75
2023-05-08T08:02:57.421Z,3.00
2023-05-08T08:05:24.033Z,2.35
2023-05-08T08:07:50.554Z,2.50
2023-05-08T08:10:17.243Z,2.45
2023-05-08T08:12:43.747Z,3.00
2023-05-08T08:15:10.759Z,2.90
2023-05-08T08:17:37.750Z,2.28
2023-05-08T08:20:04.795Z,2.47
2023-05-08T08:22:31.209Z,2.70
2023-05-08T08:24:57.625Z,2.53
2023-05-08T08:27:24.111Z,2.75
2023-05-08T08:29:52.571Z,2.92
2023-05-08T08:32:25.212Z,2.67
2023-05-08T08:34:51.658Z,2.45
2023-05-08T08:37:18.176Z,2.47
2023-05-08T08:39:44.610Z,2.92
2023-05-08T08:42:12.238Z,2.35
2023-05-08T08:44:40.077Z,2.30
2023-05-08T08:47:10.322Z,2.63
2023-05-08T08:49:43.512Z,2.63
2023-05-08T08:52:26.989Z,2.50
2023-05-08T08:54:56.746Z,2.20
2023-05-08T08:57:26.243Z,1.90
2023-05-08T08:59:53.983Z,2.38
2023-05-08T09:02:22.371Z,2.90
2023-05-08T09:04:51.907Z,2.78
2023-05-08T09:07:18.538Z,2.22
2023-05-08T09:09:46.583Z,3.13
2023-05-08T09:12:13.702Z,2.85
2023-05-08T09:14:40.132Z,2.47
2023-05-08T09:17:06.668Z,3.17
2023-05-08T09:19:34.644Z,2.53
2023-05-08T09:22:01.475Z,2.83
2023-05-08T09:24:54.454Z,3.13
2023-05-08T09:27:22.456Z,3.20
2023-05-08T09:30:05.830Z,2.13
2023-05-08T09:32:33.659Z,2.70
2023-05-08T09:35:00.929Z,2.42
2023-05-08T09:37:28.319Z,2.50
2023-05-08T09:39:54.917Z,2.60
2023-05-08T09:42:21.404Z,2.13
2023-05-08T09:44:53.988Z,3.00
2023-05-08T09:47:22.388Z,2.47
2023-05-08T09:50:00.414Z,2.67
2023-05-08T09:52:28.487Z,2.15
2023-05-08T09:54:58.820Z,2.17
2023-05-08T09:57:26.891Z,2.72
2023-05-08T10:00:01.709Z,2.25
2023-05-08T10:02:28.218Z,2.35
2023-05-08T10:04:54.694Z,2.42
2023-05-08T10:07:37.264Z,2.70
2023-05-08T10:10:05.854Z,2.25
2023-05-08T10:12:33.562Z,2.60
2023-05-08T10:14:59.989Z,2.45
2023-05-08T10:17:35.894Z,2.40
2023-05-08T10:20:07.001Z,2.38
2023-05-08T10:22:37.566Z,2.65
2023-05-08T10:25:10.880Z,2.30
2023-05-08T10:27:51.552Z,2.53
2023-05-08T10:30:23.657Z,2.10
2023-05-08T10:32:54.143Z,2.80
2023-05-08T10:35:21.818Z,2.50
2023-05-08T10:37:49.137Z,2.97
2023-05-08T10:40:16.309Z,2.63
2023-05-08T10:42:43.677Z,2.40
2023-05-08T10:45:11.480Z,2.20
2023-05-08T10:47:48.510Z,2.38
2023-05-08T10:50:28.800Z,2.55
2023-05-08T10:53:06.554Z,2.23
2023-05-08T10:55:36.746Z,2.47
2023-05-08T10:58:10.121Z,2.28
2023-05-08T11:01:03.980Z,2.40
2023-05-08T11:03:33.080Z,2.28
2023-05-08T11:06:01.230Z,2.42
2023-05-08T11:08:28.934Z,2.20
2023-05-08T11:11:01.962Z,2.50
2023-05-08T11:14:06.757Z,2.53
2023-05-08T11:16:54.971Z,1.95
2023-05-08T11:19:23.618Z,2.28
2023-05-08T11:22:16.269Z,2.25
2023-05-08T11:25:06.113Z,2.30
2023-05-08T11:27:40.687Z,2.20
2023-05-08T11:30:32.320Z,2.00
2023-05-08T11:33:04.820Z,2.33
2023-05-08T11:35:41.230Z,1.88
2023-05-08T11:38:26.489Z,2.15
2023-05-08T11:41:07.014Z,2.20
2023-05-08T11:43:42.382Z,2.42
2023-05-08T11:46:17.220Z,2.38
2023-05-08T11:48:44.265Z,1.92
2023-05-08T11:51:11.221Z,1.85
2023-05-08T11:53:38.154Z,2.08
2023-05-08T11:56:04.941Z,2.20
2023-05-08T11:58:31.634Z,2.30
2023-05-08T12:00:58.161Z,2.25
2023-05-08T12:03:25.558Z,2.05
2023-05-08T12:05:56.111Z,1.98
2023-05-08T12:08:23.837Z,2.28
2023-05-08T12:10:55.417Z,2.30
2023-05-08T12:13:25.873Z,2.30
2023-05-08T12:15:54.762Z,2.33
2023-05-08T12:18:22.651Z,2.30
2023-05-08T12:21:07.520Z,2.05
2023-05-08T12:23:33.934Z,1.90
2023-05-08T12:26:01.358Z,2.00
2023-05-08T12:28:28.310Z,2.22
2023-05-08T12:30:54.916Z,2.50
2023-05-08T12:33:22.003Z,1.90
2023-05-08T12:35:49.224Z,2.10
2023-05-08T12:38:15.753Z,2.20
2023-05-08T12:40:44.793Z,2.08
2023-05-08T12:43:11.694Z,2.13
2023-05-08T12:45:42.604Z,1.92
2023-05-08T12:50:43.182Z,2.33
2023-05-08T12:53:12.501Z,1.80
2023-05-08T12:55:40.682Z,2.25
2023-05-08T12:58:15.999Z,2.28
2023-05-08T13:00:47.440Z,1.88
2023-05-08T13:03:24.564Z,2.28
2023-05-08T13:05:52.551Z,2.08
2023-05-08T13:08:18.982Z,2.05
2023-05-08T13:10:50.722Z,2.22
2023-05-08T13:13:22.387Z,2.33
2023-05-08T13:15:49.958Z,1.98
2023-05-08T13:18:17.348Z,2.45
2023-05-08T13:20:43.815Z,2.10
2023-05-08T13:23:10.598Z,2.00
2023-05-08T13:25:37.757Z,2.17
2023-05-08T13:28:05.462Z,2.13
2023-05-08T13:30:32.063Z,2.00
2023-05-08T13:32:58.578Z,2.00
2023-05-08T13:35:25.582Z,1.92
2023-05-08T13:37:51.998Z,2.25
2023-05-08T13:40:18.436Z,2.38
2023-05-08T13:42:44.930Z,2.15
2023-05-08T13:45:14.359Z,2.47
2023-05-08T13:47:42.218Z,2.30
2023-05-08T13:50:10.358Z,2.28
2023-05-08T13:52:37.841Z,2.35
2023-05-08T13:55:08.379Z,2.15
2023-05-08T13:57:35.225Z,2.25
2023-05-08T14:00:01.924Z,2.15
2023-05-08T14:02:28.532Z,2.60
2023-05-08T14:04:55.013Z,2.20
2023-05-08T14:07:21.474Z,1.80
2023-05-08T14:09:47.942Z,2.40
2023-05-08T14:12:14.457Z,2.53
2023-05-08T14:14:40.904Z,2.28
2023-05-08T14:17:07.561Z,1.80
2023-05-08T14:19:34.569Z,2.35
2023-05-08T14:22:01.017Z,2.15
2023-05-08T14:24:27.417Z,2.55
2023-05-08T14:26:54.412Z,2.25
2023-05-08T14:29:20.942Z,2.08
2023-05-08T14:31:47.422Z,2.15
2023-05-08T14:34:13.882Z,1.98
2023-05-08T14:36:40.298Z,2.20
2023-05-08T14:39:06.701Z,2.33
2023-05-08T14:41:33.866Z,2.00
2023-05-08T14:44:01.198Z,2.42
2023-05-08T14:46:27.651Z,2.25
2023-05-08T14:48:54.898Z,2.10
2023-05-08T14:51:22.715Z,2.33
2023-05-08T14:53:49.276Z,2.28
2023-05-08T14:56:16.253Z,2.17
2023-05-08T14:58:42.756Z,2.50
2023-05-08T15:01:09.184Z,2.30
2023-05-08T15:03:35.808Z,2.28
2023-05-08T15:06:02.370Z,2.25
2023-05-08T15:08:28.802Z,2.10
2023-05-08T15:10:55.240Z,2.00
2023-05-08T15:13:21.698Z,2.38
2023-05-08T15:15:48.165Z,2.25
2023-05-08T15:18:14.574Z,2.42
2023-05-08T15:20:41.103Z,2.30
2023-05-08T15:23:07.550Z,2.15
2023-05-08T15:25:33.977Z,2.83
2023-05-08T15:28:01.060Z,2.10
2023-05-08T15:30:27.779Z,2.65
2023-05-08T15:32:54.305Z,2.65
2023-05-08T15:35:20.856Z,2.42
2023-05-08T15:37:47.293Z,2.33
2023-05-08T15:40:13.759Z,2.38
2023-05-08T15:42:40.184Z,2.38
2023-05-08T15:45:07.062Z,2.28
2023-05-08T15:47:33.592Z,2.88
2023-05-08T15:50:00.036Z,2.10
2023-05-08T15:52:26.451Z,2.55
2023-05-08T15:54:52.910Z,2.50
2023-05-08T15:57:19.319Z,2.45
2023-05-08T15:59:45.720Z,2.50
2023-05-08T16:02:12.190Z,2.55
2023-05-08T16:04:38.690Z,2.33
2023-05-08T16:07:05.135Z,2.10
2023-05-08T16:09:31.595Z,2.28
2023-05-08T16:11:58.024Z,2.30
2023-05-08T16:14:24.431Z,2.20
2023-05-08T16:16:50.855Z,2.30
2023-05-08T16:19:17.279Z,3.00
2023-05-08T16:21:47.608Z,2.03
2023-05-08T16:24:14.487Z,2.30
2023-05-08T16:26:41.224Z,2.50
2023-05-08T16:29:07.635Z,2.40
2023-05-08T16:31:34.116Z,2.25
2023-05-08T16:34:00.702Z,2.20
2023-05-08T16:36:27.594Z,2.40
2023-05-08T16:38:54.097Z,2.75
2023-05-08T16:41:21.474Z,2.63
2023-05-08T16:43:47.935Z,2.42
2023-05-08T16:46:14.420Z,2.83
2023-05-08T16:48:42.243Z,2.80
2023-05-08T16:51:08.685Z,2.22
2023-05-08T16:53:35.147Z,2.58
2023-05-08T16:56:01.584Z,2.30
2023-05-08T16:58:28.064Z,2.67
2023-05-08T17:00:54.540Z,2.92
2023-05-08T17:03:21.102Z,2.30
2023-05-08T17:05:47.613Z,2.97
2023-05-08T17:08:14.042Z,2.33
2023-05-08T17:10:41.436Z,2.40
2023-05-08T17:13:07.949Z,6.63
2023-05-08T17:15:34.426Z,2.83
2023-05-08T17:18:00.994Z,2.38
2023-05-08T17:20:27.556Z,2.85
2023-05-08T17:22:54.282Z,2.45
2023-05-08T17:25:22.372Z,2.50
2023-05-08T17:27:48.828Z,2.80
2023-05-08T17:30:16.853Z,2.50
2023-05-08T17:32:43.454Z,2.88
2023-05-08T17:35:10.374Z,2.13
2023-05-08T17:37:36.896Z,2.85
2023-05-08T17:40:03.669Z,2.28
2023-05-08T17:42:30.212Z,2.50
2023-05-08T17:44:56.653Z,2.35
2023-05-08T17:47:23.142Z,2.83
2023-05-08T17:49:49.700Z,2.70
2023-05-08T17:52:16.109Z,3.25
2023-05-08T17:54:42.550Z,2.47
2023-05-08T17:57:08.942Z,2.08
2023-05-08T17:59:35.356Z,2.08
2023-05-08T18:02:01.818Z,2.53
2023-05-08T18:04:28.324Z,2.50
2023-05-08T18:06:54.741Z,2.33
2023-05-08T18:09:21.147Z,2.30
2023-05-08T18:11:47.560Z,2.20
2023-05-08T18:14:13.983Z,2.45
2023-05-08T18:16:40.395Z,2.15
2023-05-08T18:19:06.834Z,2.42
2023-05-08T18:21:33.286Z,1.83
2023-05-08T18:23:59.704Z,2.78
2023-05-08T18:26:26.116Z,2.38
2023-05-08T18:28:52.589Z,2.33
2023-05-08T18:31:19.169Z,2.45
2023-05-08T18:33:45.830Z,2.78
2023-05-08T18:36:12.274Z,2.58
2023-05-08T18:38:38.709Z,3.08
2023-05-08T18:41:05.960Z,2.95
2023-05-08T18:43:32.397Z,2.30
2023-05-08T18:46:00.530Z,2.35
2023-05-08T18:48:27.271Z,2.08
2023-05-08T18:50:55.755Z,2.55
2023-05-08T18:53:22.155Z,2.45
2023-05-08T18:55:48.564Z,2.90
2023-05-08T18:58:15.012Z,2.30
2023-05-08T19:00:41.472Z,2.33
2023-05-08T19:03:07.990Z,2.53
2023-05-08T19:05:34.485Z,2.42
2023-05-08T19:08:00.931Z,2.47
2023-05-08T19:10:27.445Z,2.63
2023-05-08T19:12:53.898Z,2.20
2023-05-08T19:15:20.329Z,2.42
2023-05-08T19:17:46.981Z,2.28
2023-05-08T19:20:13.841Z,2.80
2023-05-08T19:22:40.612Z,2.72
2023-05-08T19:25:07.316Z,2.47
2023-05-08T19:27:33.792Z,2.58
2023-05-08T19:30:00.252Z,2.60
2023-05-08T19:32:27.601Z,2.30
2023-05-08T19:34:57.248Z,2.13
2023-05-08T19:37:24.600Z,2.78
2023-05-08T19:39:50.988Z,3.13
2023-05-08T19:42:17.392Z,2.67
2023-05-08T19:44:43.787Z,2.33
2023-05-08T19:47:10.255Z,2.30
2023-05-08T19:49:36.728Z,2.97
2023-05-08T19:52:03.153Z,2.70
2023-05-08T19:54:30.811Z,2.95
2023-05-08T19:56:58.060Z,2.25
2023-05-08T19:59:24.497Z,2.47
2023-05-08T20:01:50.954Z,2.78
2023-05-08T20:04:17.639Z,3.20
2023-05-08T20:06:44.085Z,2.67
2023-05-08T20:09:10.574Z,2.80
2023-05-08T20:11:36.971Z,2.60
2023-05-08T20:14:03.469Z,3.38
2023-05-08T20:16:29.956Z,2.78
2023-05-08T20:18:56.685Z,2.65
2023-05-08T20:21:23.141Z,2.97
2023-05-08T20:23:49.581Z,3.05
2023-05-08T20:26:15.990Z,2.72
2023-05-08T20:28:42.393Z,3.42
2023-05-08T20:31:09.055Z,3.33
2023-05-08T20:33:35.504Z,3.33
2023-05-08T20:36:02.095Z,3.58
2023-05-08T20:38:28.590Z,3.28
2023-05-08T20:40:59.299Z,3.20
2023-05-08T20:43:27.453Z,3.08
2023-05-08T20:45:53.947Z,3.88
2023-05-08T20:48:20.420Z,3.35
2023-05-08T20:50:49.677Z,3.25
2023-05-08T20:53:16.178Z,3.47
2023-05-08T20:55:42.619Z,3.13
2023-05-08T20:58:09.100Z,3.90
2023-05-08T21:00:36.009Z,3.22
2023-05-08T21:03:02.898Z,2.72
2023-05-08T21:05:29.359Z,4.18
2023-05-08T21:07:59.855Z,3.03
2023-05-08T21:10:28.729Z,3.50
2023-05-08T21:12:55.282Z,3.20
2023-05-08T21:15:21.852Z,2.80
2023-05-08T21:17:48.385Z,3.30
2023-05-08T21:20:15.055Z,3.70
2023-05-08T21:22:41.763Z,2.95
2023-05-08T21:25:15.233Z,3.08
2023-05-08T21:27:42.612Z,3.40
2023-05-08T21:30:14.740Z,4.25
2023-05-08T21:32:42.538Z,4.05
2023-05-08T21:35:10.335Z,3.03
2023-05-08T21:37:37.004Z,3.53
2023-05-08T21:40:04.604Z,3.40
2023-05-08T21:42:31.889Z,4.20
2023-05-08T21:44:58.835Z,3.55
2023-05-08T21:47:27.982Z,3.72
2023-05-08T21:49:55.000Z,3.72
2023-05-08T21:52:22.634Z,3.70
2023-05-08T21:54:49.895Z,4.45
2023-05-08T21:57:16.640Z,3.75
2023-05-08T21:59:43.071Z,3.72
2023-05-08T22:02:09.654Z,4.03
2023-05-08T22:04:36.182Z,4.03
2023-05-08T22:07:02.598Z,3.30
2023-05-08T22:09:29.038Z,4.35
2023-05-08T22:11:55.532Z,4.00
2023-05-08T22:14:22.046Z,4.30
2023-05-08T22:16:48.533Z,4.32
2023-05-08T22:19:15.140Z,4.05
2023-05-08T22:21:42.302Z,3.95
2023-05-08T22:24:08.724Z,4.35
2023-05-08T22:26:35.442Z,4.38
2023-05-08T22:29:01.891Z,4.20
2023-05-08T22:31:28.319Z,4.43
2023-05-08T22:33:54.794Z,4.40
2023-05-08T22:36:23.795Z,4.25
2023-05-08T22:38:50.507Z,3.75
2023-05-08T22:41:17.017Z,4.78
2023-05-08T22:43:43.533Z,3.67
2023-05-08T22:46:10.185Z,4.13
2023-05-08T22:48:37.535Z,4.65
2023-05-08T22:51:04.499Z,5.07
2023-05-08T22:53:30.953Z,4.60
2023-05-08T22:55:57.401Z,4.40
2023-05-08T22:58:25.202Z,4.20
2023-05-08T23:00:51.926Z,4.40
2023-05-08T23:03:18.476Z,5.10
2023-05-08T23:05:44.901Z,4.28
2023-05-08T23:08:11.311Z,4.40
2023-05-08T23:10:37.739Z,4.00
2023-05-08T23:13:04.214Z,4.85
2023-05-08T23:15:30.737Z,4.60
2023-05-08T23:17:57.167Z,4.68
2023-05-08T23:20:23.673Z,5.57
2023-05-08T23:22:50.071Z,4.38
2023-05-08T23:25:16.778Z,4.63
2023-05-08T23:27:43.310Z,4.88
2023-05-08T23:30:13.038Z,4.25
2023-05-08T23:32:39.926Z,4.80
2023-05-08T23:35:06.879Z,4.30
2023-05-08T23:37:33.310Z,4.43
2023-05-08T23:39:59.727Z,4.60
2023-05-08T23:42:26.390Z,4.72
2023-05-08T23:44:52.843Z,4.60
2023-05-08T23:47:20.855Z,4.90
2023-05-08T23:49:47.490Z,4.47
2023-05-08T23:52:14.278Z,4.57
2023-05-08T23:54:40.740Z,4.75
2023-05-08T23:57:07.190Z,5.38
2023-05-08T23:59:33.643Z,4.95
